createdAt,value
2017-08-21T00:01:28.283Z,3.93
2017-08-21T00:03:56.351Z,3.10
2017-08-21T00:06:24.445Z,6.20
2017-08-21T00:08:52.527Z,36.67
2017-08-21T00:11:20.610Z,14.47
2017-08-21T00:13:48.690Z,4.80
2017-08-21T00:16:16.767Z,5.93
2017-08-21T00:18:44.853Z,10.23
2017-08-21T00:21:12.941Z,10.47
2017-08-21T00:23:41.015Z,13.00
2017-08-21T00:26:09.109Z,15.97
2017-08-21T00:28:37.200Z,16.23
2017-08-21T00:31:05.280Z,19.33
2017-08-21T00:33:33.371Z,33.37
2017-08-21T00:36:01.463Z,17.50
2017-08-21T00:38:29.546Z,18.83
2017-08-21T00:40:57.644Z,15.43
2017-08-21T00:43:25.733Z,11.50
2017-08-21T00:45:53.811Z,19.10
2017-08-21T00:48:21.895Z,10.87
2017-08-21T00:50:49.980Z,10.80
2017-08-21T00:53:18.071Z,11.10
2017-08-21T00:55:46.158Z,23.23
2017-08-21T00:58:14.252Z,20.40
2017-08-21T01:00:42.346Z,16.20
2017-08-21T01:03:10.435Z,12.27
2017-08-21T01:05:38.538Z,9.47
2017-08-21T01:08:06.609Z,8.27
2017-08-21T01:10:34.689Z,6.53
2017-08-21T01:13:02.771Z,6.13
2017-08-21T01:15:30.855Z,6.10
2017-08-21T01:17:58.928Z,5.57
2017-08-21T01:20:27.023Z,4.33
2017-08-21T01:22:55.095Z,3.00
2017-08-21T01:25:23.175Z,6.37
2017-08-21T01:27:51.263Z,8.20
2017-08-21T01:30:19.348Z,4.30
2017-08-21T01:32:47.428Z,5.47
2017-08-21T01:35:15.515Z,7.20
2017-08-21T01:37:43.595Z,6.50
2017-08-21T01:40:11.672Z,4.87
2017-08-21T01:42:39.747Z,6.37
2017-08-21T01:45:07.828Z,4.27
2017-08-21T01:47:35.907Z,3.83
2017-08-21T01:50:04.076Z,6.07
2017-08-21T01:52:32.155Z,4.20
2017-08-21T01:55:00.239Z,4.20
2017-08-21T01:57:28.322Z,5.23
2017-08-21T01:59:56.397Z,5.93
2017-08-21T02:02:24.492Z,6.20
2017-08-21T02:04:52.577Z,3.60
2017-08-21T02:07:20.653Z,3.80
2017-08-21T02:09:48.743Z,4.30
2017-08-21T02:12:16.836Z,5.13
2017-08-21T02:14:44.911Z,4.70
2017-08-21T02:17:12.997Z,3.67
2017-08-21T02:19:41.127Z,5.50
2017-08-21T02:22:09.215Z,5.30
2017-08-21T02:24:37.292Z,3.43
2017-08-21T02:27:05.377Z,5.07
2017-08-21T02:29:33.463Z,7.57
2017-08-21T02:32:01.543Z,6.17
2017-08-21T02:34:29.624Z,3.83
2017-08-21T02:36:57.709Z,5.03
2017-08-21T02:39:25.790Z,7.90
2017-08-21T02:41:53.859Z,4.40
2017-08-21T02:44:21.956Z,3.77
2017-08-21T02:46:50.038Z,8.67
2017-08-21T02:49:18.167Z,6.30
2017-08-21T02:51:46.242Z,6.00
2017-08-21T02:54:14.328Z,5.43
2017-08-21T02:56:42.419Z,4.40
2017-08-21T02:59:10.512Z,4.80
2017-08-21T03:01:38.614Z,6.23
2017-08-21T03:04:06.691Z,4.23
2017-08-21T03:06:34.782Z,4.97
2017-08-21T03:09:02.852Z,3.77
2017-08-21T03:11:30.937Z,4.30
2017-08-21T03:13:59.014Z,4.67
2017-08-21T03:16:27.099Z,4.47
2017-08-21T03:18:55.199Z,4.73
2017-08-21T03:21:23.290Z,5.53
2017-08-21T03:23:51.369Z,5.07
2017-08-21T03:26:19.442Z,5.00
2017-08-21T03:28:47.536Z,4.73
2017-08-21T03:31:15.627Z,5.37
2017-08-21T03:33:43.702Z,5.87
2017-08-21T03:36:11.793Z,80.97
2017-08-21T03:38:39.893Z,52.87
2017-08-21T03:41:07.990Z,44.30
2017-08-21T03:43:36.079Z,11.07
2017-08-21T03:46:04.160Z,6.67
2017-08-21T03:48:32.251Z,6.13
2017-08-21T03:51:00.324Z,5.50
2017-08-21T03:53:28.416Z,6.13
2017-08-21T03:55:56.500Z,4.53
2017-08-21T03:58:24.587Z,5.77
2017-08-21T04:00:52.668Z,4.93
2017-08-21T04:03:20.781Z,5.07
2017-08-21T04:05:48.855Z,4.83
2017-08-21T04:08:16.937Z,5.70
2017-08-21T04:10:45.095Z,7.20
2017-08-21T04:13:13.182Z,4.30
2017-08-21T04:15:41.474Z,8.50
2017-08-21T04:18:09.528Z,6.60
2017-08-21T04:20:37.618Z,6.50
2017-08-21T04:23:05.705Z,6.70
2017-08-21T04:25:33.789Z,6.77
2017-08-21T04:28:01.870Z,5.70
2017-08-21T04:30:29.955Z,6.53
2017-08-21T04:32:58.048Z,6.20
2017-08-21T04:35:26.144Z,4.20
2017-08-21T04:37:54.227Z,5.30
2017-08-21T04:40:22.328Z,5.70
2017-08-21T04:42:50.427Z,5.03
2017-08-21T04:45:18.507Z,4.83
2017-08-21T04:47:46.602Z,7.30
2017-08-21T04:50:14.691Z,5.40
2017-08-21T04:52:42.766Z,5.00
2017-08-21T04:55:10.859Z,4.67
2017-08-21T04:57:38.950Z,4.90
2017-08-21T05:00:07.027Z,4.87
2017-08-21T05:02:35.117Z,5.33
2017-08-21T05:05:03.215Z,5.40
2017-08-21T05:07:31.298Z,10.60
2017-08-21T05:09:59.379Z,7.40
2017-08-21T05:12:27.470Z,4.53
2017-08-21T05:14:55.544Z,4.73
2017-08-21T05:17:23.620Z,6.23
2017-08-21T05:19:51.696Z,7.03
2017-08-21T05:22:19.776Z,6.37
2017-08-21T05:24:47.859Z,4.83
2017-08-21T05:27:15.937Z,5.27
2017-08-21T05:29:44.019Z,4.93
2017-08-21T05:32:12.091Z,4.00
2017-08-21T05:34:40.171Z,5.17
2017-08-21T05:37:08.248Z,4.73
2017-08-21T05:39:36.427Z,4.20
2017-08-21T05:42:04.507Z,5.23
2017-08-21T05:44:32.587Z,5.27
2017-08-21T05:47:00.667Z,6.63
2017-08-21T05:49:28.761Z,4.40
2017-08-21T05:51:56.835Z,5.23
2017-08-21T05:54:24.912Z,5.63
2017-08-21T05:56:53.004Z,7.57
2017-08-21T05:59:21.075Z,4.67
2017-08-21T06:01:49.159Z,4.53
2017-08-21T06:04:17.231Z,7.03
2017-08-21T06:06:45.318Z,3.70
2017-08-21T06:09:13.463Z,4.20
2017-08-21T06:11:41.559Z,4.30
2017-08-21T06:14:09.632Z,4.90
2017-08-21T06:16:37.733Z,4.17
2017-08-21T06:19:05.823Z,4.70
2017-08-21T06:21:33.908Z,3.43
2017-08-21T06:24:01.993Z,5.73
2017-08-21T06:26:30.090Z,3.30
2017-08-21T06:28:58.156Z,3.87
2017-08-21T06:31:26.232Z,4.87
2017-08-21T06:33:54.311Z,6.67
2017-08-21T06:36:22.388Z,4.23
2017-08-21T06:38:50.473Z,3.87
2017-08-21T06:41:18.543Z,4.10
2017-08-21T06:43:46.644Z,4.13
2017-08-21T06:46:14.720Z,5.37
2017-08-21T06:48:42.815Z,4.07
2017-08-21T06:51:10.896Z,3.67
2017-08-21T06:53:38.996Z,5.10
2017-08-21T06:56:07.090Z,5.40
2017-08-21T06:58:35.167Z,4.03
2017-08-21T07:01:03.253Z,3.70
2017-08-21T07:03:31.338Z,5.00
2017-08-21T07:05:59.419Z,4.90
2017-08-21T07:08:27.505Z,4.07
2017-08-21T07:10:55.587Z,4.27
2017-08-21T07:13:23.671Z,4.13
2017-08-21T07:15:51.771Z,4.50
2017-08-21T07:18:19.862Z,3.47
2017-08-21T07:20:47.955Z,3.87
2017-08-21T07:23:16.033Z,4.63
2017-08-21T07:25:44.114Z,3.93
2017-08-21T07:28:12.190Z,3.27
2017-08-21T07:30:40.279Z,7.07
2017-08-21T07:33:08.568Z,3.77
2017-08-21T07:35:36.686Z,5.10
2017-08-21T07:38:04.789Z,4.03
2017-08-21T07:40:32.847Z,3.80
2017-08-21T07:43:00.941Z,5.70
2017-08-21T07:45:29.035Z,4.47
2017-08-21T07:47:57.127Z,4.60
2017-08-21T07:50:25.209Z,5.27
2017-08-21T07:52:53.299Z,3.70
2017-08-21T07:55:21.371Z,6.87
2017-08-21T07:57:49.455Z,6.03
2017-08-21T08:00:17.525Z,7.00
2017-08-21T08:02:45.606Z,6.57
2017-08-21T08:05:13.687Z,3.87
2017-08-21T08:07:41.767Z,8.27
2017-08-21T08:10:09.848Z,4.63
2017-08-21T08:12:37.950Z,5.47
2017-08-21T08:15:06.015Z,4.60
2017-08-21T08:17:34.112Z,6.63
2017-08-21T08:20:02.184Z,5.03
2017-08-21T08:22:30.255Z,4.77
2017-08-21T08:24:58.335Z,7.70
2017-08-21T08:27:26.424Z,6.37
2017-08-21T08:29:54.503Z,5.00
2017-08-21T08:32:22.594Z,4.73
2017-08-21T08:34:50.681Z,5.63
2017-08-21T08:37:18.760Z,4.10
2017-08-21T08:39:46.849Z,5.60
2017-08-21T08:42:14.939Z,5.97
2017-08-21T08:44:43.026Z,3.70
2017-08-21T08:47:11.107Z,5.33
2017-08-21T08:49:39.215Z,3.77
2017-08-21T08:52:07.283Z,4.33
2017-08-21T08:54:35.388Z,4.40
2017-08-21T08:57:03.460Z,5.10
2017-08-21T08:59:31.544Z,5.93
2017-08-21T09:01:59.619Z,5.30
2017-08-21T09:04:27.711Z,4.90
2017-08-21T09:06:55.800Z,4.00
2017-08-21T09:09:23.881Z,4.43
2017-08-21T09:11:51.963Z,5.00
2017-08-21T09:14:20.037Z,5.30
2017-08-21T09:16:48.126Z,3.77
2017-08-21T09:19:16.204Z,5.43
2017-08-21T09:21:44.300Z,3.97
2017-08-21T09:24:12.379Z,3.30
2017-08-21T09:26:40.469Z,5.10
2017-08-21T09:29:08.545Z,3.60
2017-08-21T09:31:36.652Z,5.47
2017-08-21T09:34:04.728Z,5.93
2017-08-21T09:36:32.808Z,7.40
2017-08-21T09:39:00.888Z,4.20
2017-08-21T09:41:28.963Z,4.20
2017-08-21T09:43:57.077Z,5.07
2017-08-21T09:46:25.127Z,5.40
2017-08-21T09:48:53.207Z,5.40
2017-08-21T09:51:21.290Z,5.60
2017-08-21T09:53:49.361Z,4.40
2017-08-21T09:56:17.443Z,3.47
2017-08-21T09:58:45.667Z,3.40
2017-08-21T10:01:13.739Z,4.10
2017-08-21T10:03:41.828Z,4.70
2017-08-21T10:06:09.919Z,4.60
2017-08-21T10:08:38.004Z,5.87
2017-08-21T10:11:06.085Z,3.97
2017-08-21T10:13:34.186Z,3.93
2017-08-21T10:16:02.261Z,6.00
2017-08-21T10:18:30.342Z,6.87
2017-08-21T10:20:58.431Z,4.50
2017-08-21T10:23:26.513Z,5.67
2017-08-21T10:25:54.583Z,3.43
2017-08-21T10:28:22.660Z,4.23
2017-08-21T10:30:50.755Z,2.83
2017-08-21T10:33:18.855Z,3.60
2017-08-21T10:35:46.935Z,3.30
2017-08-21T10:38:15.012Z,3.03
2017-08-21T10:40:43.099Z,3.43
2017-08-21T10:43:11.172Z,4.43
2017-08-21T10:45:39.283Z,3.73
2017-08-21T10:48:07.368Z,5.70
2017-08-21T10:50:35.459Z,2.53
2017-08-21T10:53:03.539Z,3.53
2017-08-21T10:55:31.626Z,3.10
2017-08-21T10:57:59.703Z,4.10
2017-08-21T11:00:27.780Z,2.83
2017-08-21T11:02:55.862Z,3.17
2017-08-21T11:05:23.947Z,2.33
2017-08-21T11:07:52.244Z,2.00
2017-08-21T11:10:20.323Z,5.30
2017-08-21T11:12:48.509Z,2.87
2017-08-21T11:15:16.673Z,3.80
2017-08-21T11:17:44.923Z,2.70
2017-08-21T11:20:13.004Z,2.83
2017-08-21T11:22:41.281Z,2.27
2017-08-21T11:25:09.356Z,3.10
2017-08-21T11:27:37.452Z,4.27
2017-08-21T11:30:05.567Z,2.93
2017-08-21T11:32:33.752Z,3.27
2017-08-21T11:35:01.836Z,4.63
2017-08-21T11:37:29.929Z,3.03
2017-08-21T11:39:58.011Z,3.20
2017-08-21T11:42:26.092Z,3.03
2017-08-21T11:44:54.310Z,2.43
2017-08-21T11:47:22.388Z,5.37
2017-08-21T11:49:50.473Z,2.43
2017-08-21T11:52:18.548Z,2.53
2017-08-21T11:54:46.639Z,2.47
2017-08-21T11:57:14.715Z,2.47
2017-08-21T11:59:42.799Z,1.73
2017-08-21T12:02:10.872Z,3.00
2017-08-21T12:04:39.071Z,2.13
2017-08-21T12:07:07.152Z,2.27
2017-08-21T12:09:35.239Z,2.50
2017-08-21T12:12:03.327Z,2.33
2017-08-21T12:14:31.399Z,3.13
2017-08-21T12:16:59.484Z,3.77
2017-08-21T12:19:27.556Z,2.43
2017-08-21T12:21:55.630Z,2.57
2017-08-21T12:24:23.705Z,3.20
2017-08-21T12:26:51.787Z,2.60
2017-08-21T12:29:19.876Z,4.47
2017-08-21T12:31:47.960Z,3.03
2017-08-21T12:34:16.932Z,3.30
2017-08-21T12:36:45.010Z,2.83
2017-08-21T12:39:13.129Z,5.23
2017-08-21T12:41:41.220Z,2.10
2017-08-21T12:44:09.302Z,1.67
2017-08-21T12:46:37.727Z,2.43
2017-08-21T12:49:05.801Z,2.67
2017-08-21T12:51:33.875Z,2.30
2017-08-21T12:54:01.957Z,2.63
2017-08-21T12:56:30.040Z,2.73
2017-08-21T12:58:58.133Z,1.90
2017-08-21T13:01:26.209Z,3.20
2017-08-21T13:03:54.279Z,3.87
2017-08-21T13:06:22.360Z,2.73
2017-08-21T13:08:50.435Z,3.50
2017-08-21T13:11:18.531Z,3.00
2017-08-21T13:13:46.611Z,2.87
2017-08-21T13:16:14.697Z,2.23
2017-08-21T13:18:42.775Z,5.63
2017-08-21T13:21:10.859Z,3.30
2017-08-21T13:23:38.931Z,3.60
2017-08-21T13:26:07.035Z,2.77
2017-08-21T13:28:35.111Z,2.90
2017-08-21T13:31:03.212Z,4.50
2017-08-21T13:33:31.307Z,2.00
2017-08-21T13:35:59.396Z,2.80
2017-08-21T13:38:27.477Z,2.40
2017-08-21T13:40:55.568Z,1.70
2017-08-21T13:43:23.858Z,3.37
2017-08-21T13:45:51.951Z,4.57
2017-08-21T13:48:20.040Z,2.73
2017-08-21T13:50:48.332Z,2.23
2017-08-21T13:53:16.623Z,1.93
2017-08-21T13:55:44.720Z,2.40
2017-08-21T13:58:12.822Z,4.80
2017-08-21T14:00:41.022Z,2.17
2017-08-21T14:03:09.115Z,2.70
2017-08-21T14:05:37.194Z,3.77
2017-08-21T14:08:05.287Z,2.40
2017-08-21T14:10:33.368Z,1.57
2017-08-21T14:13:01.460Z,2.57
2017-08-21T14:15:30.436Z,2.40
2017-08-21T14:17:58.525Z,3.70
2017-08-21T14:20:26.613Z,4.07
2017-08-21T14:22:54.697Z,2.60
2017-08-21T14:25:22.784Z,2.60
2017-08-21T14:27:50.860Z,3.20
2017-08-21T14:30:18.935Z,3.07
2017-08-21T14:32:47.044Z,2.73
2017-08-21T14:35:15.120Z,2.90
2017-08-21T14:37:43.204Z,2.47
2017-08-21T14:40:11.288Z,2.17
2017-08-21T14:42:39.372Z,2.13
2017-08-21T14:45:07.443Z,3.27
2017-08-21T14:47:35.593Z,2.97
2017-08-21T14:50:03.863Z,2.80
2017-08-21T14:52:31.940Z,2.50
2017-08-21T14:55:00.024Z,3.00
2017-08-21T14:57:28.100Z,3.33
2017-08-21T14:59:56.612Z,3.40
2017-08-21T15:02:24.663Z,3.20
2017-08-21T15:04:52.769Z,3.37
2017-08-21T15:07:20.847Z,6.77
2017-08-21T15:09:49.925Z,3.53
2017-08-21T15:12:17.999Z,2.77
2017-08-21T15:14:46.200Z,2.60
2017-08-21T15:17:14.280Z,4.10
2017-08-21T15:19:42.540Z,4.17
2017-08-21T15:22:10.707Z,2.80
2017-08-21T15:24:38.900Z,3.00
2017-08-21T15:27:06.983Z,2.83
2017-08-21T15:29:35.059Z,3.10
2017-08-21T15:32:03.168Z,2.57
2017-08-21T15:34:31.239Z,3.20
2017-08-21T15:36:59.320Z,3.00
2017-08-21T15:39:27.512Z,2.40
2017-08-21T15:41:55.592Z,3.33
2017-08-21T15:44:23.672Z,3.20
2017-08-21T15:46:51.771Z,2.97
2017-08-21T15:49:19.843Z,2.87
2017-08-21T15:51:47.924Z,2.43
2017-08-21T15:54:16.008Z,2.93
2017-08-21T15:56:44.085Z,3.43
2017-08-21T15:59:12.176Z,5.87
2017-08-21T16:01:40.356Z,2.80
2017-08-21T16:04:08.456Z,4.50
2017-08-21T16:06:36.551Z,4.40
2017-08-21T16:09:04.756Z,4.63
2017-08-21T16:11:32.836Z,2.60
2017-08-21T16:14:00.973Z,2.20
2017-08-21T16:16:29.060Z,2.33
2017-08-21T16:18:57.145Z,3.10
2017-08-21T16:21:25.992Z,3.33
2017-08-21T16:23:54.085Z,2.10
2017-08-21T16:26:22.166Z,4.10
2017-08-21T16:28:50.252Z,2.60
2017-08-21T16:31:19.227Z,2.23
2017-08-21T16:33:47.499Z,2.70
2017-08-21T16:36:15.582Z,2.43
2017-08-21T16:38:43.852Z,2.63
2017-08-21T16:41:11.931Z,2.47
2017-08-21T16:43:40.186Z,3.50
2017-08-21T16:46:08.275Z,2.60
2017-08-21T16:48:36.411Z,3.47
2017-08-21T16:51:04.521Z,4.13
2017-08-21T16:53:33.496Z,5.93
2017-08-21T16:56:01.769Z,2.90
2017-08-21T16:58:29.894Z,2.23
2017-08-21T17:00:58.110Z,3.47
2017-08-21T17:03:26.195Z,3.77
2017-08-21T17:08:47.011Z,6.37
2017-08-21T17:11:15.083Z,6.80
2017-08-21T17:13:43.927Z,3.00
2017-08-21T17:16:12.803Z,4.33
2017-08-21T17:18:40.888Z,4.10
2017-08-21T17:21:08.959Z,3.90
2017-08-21T17:23:37.055Z,3.40
2017-08-21T17:26:05.213Z,2.40
2017-08-21T17:28:33.323Z,2.50
2017-08-21T17:31:01.407Z,2.37
2017-08-21T17:33:29.482Z,2.77
2017-08-21T17:35:57.563Z,2.83
2017-08-21T17:38:25.645Z,2.83
2017-08-21T17:40:53.869Z,4.17
2017-08-21T17:43:21.951Z,3.23
2017-08-21T17:45:50.030Z,3.63
2017-08-21T17:48:18.120Z,2.57
2017-08-21T17:50:46.196Z,3.17
2017-08-21T17:53:14.276Z,3.30
2017-08-21T17:55:42.787Z,2.43
2017-08-21T17:58:10.867Z,3.33
2017-08-21T18:00:38.955Z,3.00
2017-08-21T18:03:07.034Z,4.13
2017-08-21T18:05:35.114Z,2.87
2017-08-21T18:08:03.208Z,2.60
2017-08-21T18:10:31.287Z,4.33
2017-08-21T18:12:59.378Z,9.43
2017-08-21T18:15:27.454Z,4.03
2017-08-21T18:17:55.525Z,2.60
2017-08-21T18:20:23.602Z,2.77
2017-08-21T18:22:51.680Z,2.30
2017-08-21T18:25:19.764Z,4.37
2017-08-21T18:27:47.848Z,2.80
2017-08-21T18:30:15.927Z,2.90
2017-08-21T18:32:44.051Z,4.00
2017-08-21T18:35:12.136Z,3.00
2017-08-21T18:37:40.207Z,3.97
2017-08-21T18:40:08.287Z,4.67
2017-08-21T18:42:36.375Z,5.27
2017-08-21T18:45:04.464Z,3.27
2017-08-21T18:47:32.551Z,4.57
2017-08-21T18:50:00.634Z,3.00
2017-08-21T18:52:28.720Z,3.30
2017-08-21T18:54:56.791Z,3.60
2017-08-21T18:57:24.891Z,3.80
2017-08-21T18:59:52.967Z,5.23
2017-08-21T19:02:21.053Z,4.97
2017-08-21T19:04:49.128Z,5.77
2017-08-21T19:07:17.215Z,3.50
2017-08-21T19:09:45.331Z,6.20
2017-08-21T19:12:13.410Z,5.40
2017-08-21T19:14:41.483Z,3.40
2017-08-21T19:17:09.588Z,5.17
2017-08-21T19:19:37.646Z,2.90
2017-08-21T19:22:05.740Z,3.30
2017-08-21T19:24:33.819Z,3.37
2017-08-21T19:27:01.909Z,2.60
2017-08-21T19:29:30.104Z,3.53
2017-08-21T19:31:58.184Z,3.13
2017-08-21T19:34:26.270Z,4.30
2017-08-21T19:36:54.343Z,3.37
2017-08-21T19:39:22.431Z,5.67
2017-08-21T19:41:50.507Z,3.57
2017-08-21T19:44:18.592Z,4.13
2017-08-21T19:46:46.668Z,3.50
2017-08-21T19:49:14.786Z,3.17
2017-08-21T19:51:42.859Z,3.03
2017-08-21T19:54:10.944Z,3.13
2017-08-21T19:56:39.017Z,3.70
2017-08-21T19:59:07.161Z,3.30
2017-08-21T20:02:17.043Z,3.40
2017-08-21T20:04:45.128Z,5.53
2017-08-21T20:07:13.208Z,3.70
2017-08-21T20:09:41.438Z,5.17
2017-08-21T20:12:09.695Z,3.70
2017-08-21T20:14:37.799Z,7.50
2017-08-21T20:17:06.091Z,2.80
2017-08-21T20:19:34.230Z,2.83
2017-08-21T20:22:07.739Z,4.30
2017-08-21T20:24:35.826Z,6.57
2017-08-21T20:27:04.014Z,4.03
2017-08-21T20:29:32.090Z,5.70
2017-08-21T20:32:01.054Z,3.37
2017-08-21T20:34:29.150Z,4.00
2017-08-21T20:36:57.284Z,5.33
2017-08-21T20:39:25.360Z,4.10
2017-08-21T20:41:53.536Z,3.10
2017-08-21T20:44:22.436Z,3.50
2017-08-21T20:46:50.576Z,3.53
2017-08-21T20:49:18.647Z,4.00
2017-08-21T20:51:46.844Z,4.83
2017-08-21T20:54:14.912Z,5.33
2017-08-21T20:56:42.994Z,26.80
2017-08-21T20:59:11.087Z,6.17
2017-08-21T21:01:39.193Z,5.43
2017-08-21T21:04:07.392Z,5.37
2017-08-21T21:06:35.488Z,3.50
2017-08-21T21:09:04.327Z,3.53
2017-08-21T21:11:32.412Z,4.10
2017-08-21T21:14:00.579Z,3.33
2017-08-21T21:16:28.670Z,3.80
2017-08-21T21:18:56.751Z,4.23
2017-08-21T21:21:24.831Z,4.50
2017-08-21T21:23:53.002Z,4.40
2017-08-21T21:26:21.082Z,4.23
2017-08-21T21:28:49.387Z,4.87
2017-08-21T21:31:17.600Z,4.80
2017-08-21T21:33:45.679Z,5.00
2017-08-21T21:36:13.759Z,4.03
2017-08-21T21:38:41.839Z,3.63
2017-08-21T21:41:09.919Z,4.30
2017-08-21T21:43:38.024Z,8.40
2017-08-21T21:46:06.091Z,4.70
2017-08-21T21:48:34.503Z,5.57
2017-08-21T21:51:02.678Z,3.97
2017-08-21T21:53:30.859Z,3.53
2017-08-21T21:55:58.939Z,4.27
2017-08-21T21:58:27.097Z,5.17
2017-08-21T22:00:55.315Z,3.63
2017-08-21T22:03:23.440Z,5.10
2017-08-21T22:05:51.633Z,3.83
2017-08-21T22:08:19.753Z,4.00
2017-08-21T22:10:47.856Z,4.30
2017-08-21T22:13:16.715Z,4.70
2017-08-21T22:15:44.823Z,4.90
2017-08-21T22:18:12.971Z,4.50
2017-08-21T22:20:42.212Z,4.10
2017-08-21T22:23:18.134Z,3.97
2017-08-21T22:26:11.499Z,4.13
2017-08-21T22:28:39.643Z,5.53
2017-08-21T22:31:08.581Z,4.10
2017-08-21T22:33:37.432Z,3.60
2017-08-21T22:36:05.535Z,6.03
2017-08-21T22:38:34.379Z,5.23
2017-08-21T22:41:02.474Z,6.50
2017-08-21T22:43:31.478Z,6.43
2017-08-21T22:45:59.559Z,4.80
2017-08-21T22:48:27.634Z,10.10
2017-08-21T22:50:55.806Z,9.50
2017-08-21T22:53:24.659Z,7.73
2017-08-21T22:55:52.838Z,7.80
2017-08-21T22:58:20.965Z,5.13
2017-08-21T23:00:49.038Z,8.57
2017-08-21T23:03:17.255Z,4.40
2017-08-21T23:05:45.339Z,4.60
2017-08-21T23:08:14.195Z,4.40
2017-08-21T23:10:42.280Z,4.63
2017-08-21T23:13:10.363Z,5.77
2017-08-21T23:15:38.434Z,6.40
2017-08-21T23:18:06.517Z,5.00
2017-08-21T23:20:34.694Z,4.97
2017-08-21T23:23:02.773Z,5.10
2017-08-21T23:25:30.854Z,5.07
2017-08-21T23:27:58.945Z,7.60
2017-08-21T23:30:27.016Z,5.03
2017-08-21T23:32:55.096Z,6.60
2017-08-21T23:35:23.188Z,5.17
2017-08-21T23:37:51.258Z,5.27
2017-08-21T23:40:19.347Z,5.03
2017-08-21T23:42:47.419Z,4.40
2017-08-21T23:45:15.496Z,7.03
2017-08-21T23:47:43.569Z,5.80
2017-08-21T23:50:11.746Z,5.20
2017-08-21T23:52:39.820Z,5.43
2017-08-21T23:55:07.907Z,5.33
2017-08-21T23:57:35.986Z,5.93
